Time;durP1;ratioP1;P1;durP2;ratioP2;P2;SDS_P1;SDS_P2;PMS_P1;PMS_P2;Temp;Humidity;BMP_temperature;BMP_pressure;BME280_temperature;BME280_humidity;BME280_pressure;Samples;Min_cycle;Max_cycle;Signal;HPM_P1;HPM_P2
2022/04/23 00:00:34;;;;;;;3.67;1.17;;;11.80;99.90;;;;;;5013034;28;20041;-73
2022/04/23 00:03:00;;;;;;;6.18;1.45;;;11.70;99.90;;;;;;5013142;28;20426;-73
2022/04/23 00:05:25;;;;;;;9.32;2.30;;;11.60;99.90;;;;;;5012846;28;20030;-75
2022/04/23 00:07:51;;;;;;;5.75;1.75;;;11.70;99.90;;;;;;5013183;28;20501;-75
2022/04/23 00:10:16;;;;;;;3.22;1.33;;;11.70;99.90;;;;;;5012816;28;20360;-75
2022/04/23 00:12:46;;;;;;;4.20;1.38;;;11.60;99.90;;;;;;5013038;28;20380;-75
2022/04/23 00:15:12;;;;;;;3.25;1.63;;;11.60;99.90;;;;;;5012830;28;20052;-73
2022/04/23 00:17:37;;;;;;;3.50;1.77;;;11.60;99.90;;;;;;5013947;28;20040;-75
2022/04/23 00:20:05;;;;;;;5.28;2.08;;;11.60;99.90;;;;;;5016294;28;20033;-74
2022/04/23 00:22:30;;;;;;;5.90;1.63;;;11.60;99.90;;;;;;5016366;28;20022;-74
2022/04/23 00:24:57;;;;;;;4.57;1.83;;;11.50;99.90;;;;;;5016270;28;20041;-74
2022/04/23 00:27:23;;;;;;;7.75;2.13;;;11.60;99.90;;;;;;5016020;28;20026;-74
2022/04/23 00:29:49;;;;;;;5.50;2.20;;;11.60;99.90;;;;;;5016130;28;20547;-73
2022/04/23 00:32:14;;;;;;;4.85;2.40;;;11.50;99.90;;;;;;4998410;28;20041;-73
2022/04/23 00:34:40;;;;;;;4.63;2.50;;;11.60;99.90;;;;;;5016315;28;20013;-74
2022/04/23 00:37:05;;;;;;;4.72;2.08;;;11.50;99.90;;;;;;5015941;28;20022;-75
2022/04/23 00:39:32;;;;;;;4.22;2.65;;;11.40;99.90;;;;;;5015947;28;20040;-75
2022/04/23 00:42:00;;;;;;;5.07;2.40;;;11.40;99.90;;;;;;5015880;28;20024;-75
2022/04/23 00:44:26;;;;;;;5.60;2.92;;;11.40;99.90;;;;;;5015908;28;20065;-75
2022/04/23 00:46:52;;;;;;;6.40;2.65;;;11.40;99.90;;;;;;5015777;28;20050;-75
2022/04/23 00:49:17;;;;;;;4.15;2.70;;;11.40;99.90;;;;;;5016030;28;20033;-75
2022/04/23 00:51:43;;;;;;;4.97;2.20;;;11.40;99.90;;;;;;4998136;28;20066;-75
2022/04/23 00:54:10;;;;;;;6.57;2.53;;;11.40;99.90;;;;;;5015994;28;20026;-75
2022/04/23 00:56:36;;;;;;;6.22;2.67;;;11.30;99.90;;;;;;5015623;28;20037;-74
2022/04/23 00:59:10;;;;;;;10.13;3.38;;;11.30;99.90;;;;;;5015569;28;20018;-74
2022/04/23 01:01:37;;;;;;;5.40;2.75;;;11.30;99.90;;;;;;5015815;28;20049;-75
2022/04/23 01:04:02;;;;;;;8.63;2.95;;;11.20;99.90;;;;;;5015786;28;20038;-74
2022/04/23 01:06:34;;;;;;;7.18;3.35;;;11.30;99.90;;;;;;4997980;28;20383;-73
2022/04/23 01:09:03;;;;;;;8.25;3.13;;;11.30;99.90;;;;;;5015458;28;20022;-74
2022/04/23 01:11:28;;;;;;;;;;;11.20;99.90;;;;;;5015992;28;20379;-74
2022/04/23 01:13:55;;;;;;;7.60;2.97;;;11.20;99.90;;;;;;4997883;28;19906;-74
2022/04/23 01:16:21;;;;;;;6.18;3.40;;;11.20;99.90;;;;;;5015308;28;20108;-73
2022/04/23 01:18:46;;;;;;;8.02;2.92;;;11.20;99.90;;;;;;5015210;28;20491;-74
2022/04/23 01:21:13;;;;;;;6.07;3.53;;;11.20;99.90;;;;;;5015176;28;20021;-75
2022/04/23 01:23:40;;;;;;;8.52;3.72;;;11.10;99.90;;;;;;5015111;28;20110;-74
2022/04/23 01:26:08;;;;;;;7.28;3.63;;;11.10;99.90;;;;;;5014989;28;20114;-75
2022/04/23 01:28:37;;;;;;;5.57;3.20;;;11.00;99.90;;;;;;5014580;28;20084;-75
2022/04/23 01:31:04;;;;;;;8.52;4.18;;;11.00;99.90;;;;;;5014736;28;20029;-74
2022/04/23 01:33:32;;;;;;;8.68;4.07;;;11.00;99.90;;;;;;4997322;28;20113;-74
2022/04/23 01:35:58;;;;;;;10.60;4.43;;;11.00;99.90;;;;;;5014836;28;20026;-75
2022/04/23 01:38:23;;;;;;;7.20;3.88;;;11.00;99.90;;;;;;5015193;28;20073;-74
2022/04/23 01:40:49;;;;;;;7.85;4.28;;;10.90;99.90;;;;;;4997254;28;20064;-76
2022/04/23 01:43:15;;;;;;;7.50;3.70;;;10.90;99.90;;;;;;5014811;28;20033;-74
2022/04/23 01:45:40;;;;;;;6.93;3.60;;;10.90;99.90;;;;;;4997051;28;20014;-73
2022/04/23 01:48:07;;;;;;;7.10;3.47;;;10.90;99.90;;;;;;5014809;28;20014;-73
2022/04/23 01:50:34;;;;;;;5.13;3.38;;;11.00;99.90;;;;;;5014611;28;20026;-75
2022/04/23 01:52:59;;;;;;;7.93;3.85;;;10.90;99.90;;;;;;5014591;28;20033;-75
2022/04/23 01:55:25;;;;;;;10.40;4.43;;;10.80;99.90;;;;;;5015403;28;20037;-75
2022/04/23 01:57:51;;;;;;;8.70;4.90;;;10.80;99.90;;;;;;5014465;28;20026;-75
2022/04/23 02:00:16;;;;;;;11.35;5.22;;;10.80;99.90;;;;;;5014434;28;20080;-74
2022/04/23 02:02:43;;;;;;;6.82;4.10;;;10.80;99.90;;;;;;5014503;28;20022;-74
2022/04/23 02:05:10;;;;;;;9.18;4.63;;;10.90;99.90;;;;;;5014859;28;20073;-74
2022/04/23 02:07:39;;;;;;;10.85;4.35;;;10.90;99.90;;;;;;5014363;28;20503;-74
2022/04/23 02:10:07;;;;;;;9.65;4.10;;;10.80;99.90;;;;;;5014991;28;20084;-75
2022/04/23 02:12:33;;;;;;;9.63;4.90;;;10.80;99.90;;;;;;5014178;28;20029;-75
2022/04/23 02:14:59;;;;;;;11.77;5.22;;;10.80;99.90;;;;;;4996682;28;20518;-75
2022/04/23 02:17:44;;;;;;;9.77;5.40;;;10.80;99.90;;;;;;4996459;28;20038;-75
2022/04/23 02:20:18;;;;;;;9.90;5.30;;;10.80;99.90;;;;;;4996570;28;20097;-75
2022/04/23 02:22:47;;;;;;;9.35;4.70;;;10.90;99.90;;;;;;5014124;28;20022;-75
2022/04/23 02:25:15;;;;;;;10.77;5.55;;;10.90;99.90;;;;;;5014620;28;20029;-75
2022/04/23 02:27:48;;;;;;;10.27;5.10;;;10.90;99.90;;;;;;5014045;28;20104;-75
2022/04/23 02:30:16;;;;;;;12.93;5.22;;;11.00;99.90;;;;;;5014206;28;20022;-75
2022/04/23 02:32:42;;;;;;;12.25;5.70;;;11.00;99.90;;;;;;5013825;28;20029;-75
2022/04/23 02:35:09;;;;;;;11.02;5.70;;;11.00;99.90;;;;;;4996364;28;20067;-75
2022/04/23 02:37:35;;;;;;;10.95;5.72;;;11.10;99.90;;;;;;5013656;28;20127;-75
2022/04/23 02:40:05;;;;;;;12.48;5.93;;;11.10;99.90;;;;;;5013969;28;20022;-75
2022/04/23 02:42:30;;;;;;;9.88;5.85;;;11.10;99.90;;;;;;4996460;28;20080;-75
2022/04/23 02:45:01;;;;;;;12.85;6.20;;;11.20;99.90;;;;;;5013779;28;20034;-75
2022/04/23 02:47:40;;;;;;;11.07;6.20;;;11.20;99.90;;;;;;4996124;28;20104;-75
2022/04/23 02:50:06;;;;;;;11.55;6.18;;;11.20;99.90;;;;;;5013680;28;20022;-75
2022/04/23 02:52:32;;;;;;;13.00;6.30;;;11.30;99.90;;;;;;5013597;28;20525;-75
2022/04/23 02:54:57;;;;;;;12.60;6.45;;;11.20;99.90;;;;;;5013881;28;20021;-75
2022/04/23 02:57:24;;;;;;;12.55;6.43;;;11.30;99.90;;;;;;5013810;28;20025;-74
2022/04/23 02:59:49;;;;;;;13.77;6.82;;;11.30;99.90;;;;;;4996275;28;20018;-74
2022/04/23 03:02:15;;;;;;;14.38;6.85;;;11.30;99.90;;;;;;5013847;28;20041;-74
2022/04/23 03:04:42;;;;;;;11.45;6.68;;;11.30;99.90;;;;;;4995933;28;20109;-74
2022/04/23 03:07:07;;;;;;;11.68;6.78;;;11.30;99.90;;;;;;4995731;28;20046;-74
2022/04/23 03:09:33;;;;;;;14.40;6.63;;;11.30;99.90;;;;;;5014005;28;20026;-75
2022/04/23 03:11:58;;;;;;;14.57;7.30;;;11.30;99.90;;;;;;4995856;28;20071;-75
2022/04/23 03:14:24;;;;;;;15.13;7.88;;;11.20;99.90;;;;;;5013451;28;20114;-75
2022/04/23 03:16:49;;;;;;;13.95;7.72;;;11.30;99.90;;;;;;5013237;28;20073;-74
2022/04/23 03:19:15;;;;;;;11.60;6.30;;;11.30;99.90;;;;;;5013438;28;20095;-74
2022/04/23 03:21:41;;;;;;;14.13;7.07;;;11.20;99.90;;;;;;5013287;28;20037;-74
2022/04/23 03:24:06;;;;;;;11.98;6.78;;;11.20;99.90;;;;;;5013338;28;20509;-74
2022/04/23 03:26:32;;;;;;;14.02;7.43;;;11.10;99.90;;;;;;5013469;28;20029;-74
2022/04/23 03:28:57;;;;;;;13.13;7.32;;;11.10;99.90;;;;;;5013307;28;20132;-75
2022/04/23 03:31:23;;;;;;;14.85;7.18;;;11.00;99.90;;;;;;5013510;28;20022;-75
2022/04/23 03:33:48;;;;;;;15.57;7.43;;;11.00;99.90;;;;;;4995766;28;20024;-75
2022/04/23 03:36:14;;;;;;;14.90;8.10;;;10.90;99.90;;;;;;5013270;28;20018;-74
2022/04/23 03:38:39;;;;;;;15.00;8.18;;;10.90;99.90;;;;;;5013270;28;20022;-75
2022/04/23 03:41:05;;;;;;;16.95;8.65;;;10.80;99.90;;;;;;5013199;28;20029;-74
2022/04/23 03:43:32;;;;;;;15.98;8.15;;;10.70;99.90;;;;;;5013268;28;20022;-74
2022/04/23 03:45:58;;;;;;;14.70;8.35;;;10.70;99.90;;;;;;5013119;28;20029;-74
2022/04/23 03:48:23;;;;;;;16.02;8.70;;;10.70;99.90;;;;;;5012980;28;20037;-75
2022/04/23 03:50:49;;;;;;;14.02;7.53;;;10.70;99.90;;;;;;5013247;28;20026;-74
2022/04/23 03:53:14;;;;;;;16.15;8.30;;;10.50;99.90;;;;;;4997795;28;20125;-74
2022/04/23 03:55:40;;;;;;;19.27;8.40;;;10.50;99.90;;;;;;5016842;28;20454;-74
2022/04/23 03:58:06;;;;;;;15.00;8.35;;;10.50;99.90;;;;;;4999193;28;20545;-75
2022/04/23 04:00:32;;;;;;;16.30;8.77;;;10.40;99.90;;;;;;5016705;28;20021;-74
2022/04/23 04:02:58;;;;;;;16.00;8.68;;;10.40;99.90;;;;;;5016485;28;20105;-76
2022/04/23 04:05:28;;;;;;;16.90;9.23;;;10.30;99.90;;;;;;5016634;28;20519;-77
2022/04/23 04:07:53;;;;;;;16.10;8.30;;;10.30;99.90;;;;;;4998892;28;20029;-76
2022/04/23 04:10:21;;;;;;;15.48;8.68;;;10.20;99.90;;;;;;4998896;28;20022;-74
2022/04/23 04:12:48;;;;;;;15.55;8.50;;;10.20;99.90;;;;;;5016685;28;20149;-75
2022/04/23 04:15:19;;;;;;;15.73;8.75;;;10.20;99.90;;;;;;5016495;28;20045;-74
2022/04/23 04:17:48;;;;;;;16.20;8.35;;;10.20;99.90;;;;;;5016328;28;20040;-76
2022/04/23 04:20:14;;;;;;;16.20;8.52;;;10.20;99.90;;;;;;4998841;28;20022;-75
2022/04/23 04:22:44;;;;;;;17.70;9.85;;;10.10;99.90;;;;;;5016456;28;20185;-74
2022/04/23 04:25:11;;;;;;;17.42;9.48;;;10.10;99.90;;;;;;5016658;28;20399;-74
2022/04/23 04:27:37;;;;;;;16.25;9.00;;;10.10;99.90;;;;;;5016215;28;20029;-74
2022/04/23 04:30:05;;;;;;;18.35;9.07;;;10.10;99.90;;;;;;4998609;28;20084;-75
2022/04/23 04:32:31;;;;;;;15.98;9.65;;;10.10;99.90;;;;;;4998548;28;20018;-75
2022/04/23 04:34:57;;;;;;;15.07;8.95;;;10.10;99.90;;;;;;5016426;28;20382;-74
2022/04/23 04:37:22;;;;;;;17.67;9.40;;;10.10;99.90;;;;;;5016238;28;20097;-74
2022/04/23 04:39:48;;;;;;;16.92;9.23;;;10.00;99.90;;;;;;5016677;28;20026;-75
2022/04/23 04:42:14;;;;;;;18.55;9.38;;;10.00;99.90;;;;;;5016142;28;20065;-75
2022/04/23 04:44:40;;;;;;;18.30;10.18;;;10.00;99.90;;;;;;4998811;28;20442;-74
2022/04/23 04:47:06;;;;;;;19.75;10.70;;;10.00;99.90;;;;;;4998691;28;20057;-74
2022/04/23 04:49:32;;;;;;;20.73;10.23;;;10.00;99.90;;;;;;5016252;28;20108;-74
2022/04/23 04:51:58;;;;;;;16.70;8.95;;;10.00;99.90;;;;;;5016304;28;20070;-75
2022/04/23 04:54:23;;;;;;;17.85;9.57;;;9.90;99.90;;;;;;5016466;28;20026;-75
2022/04/23 04:56:50;;;;;;;17.52;10.02;;;9.90;99.90;;;;;;5016095;28;20028;-75
2022/04/23 04:59:17;;;;;;;17.17;10.05;;;9.90;99.90;;;;;;4998283;28;20033;-75
2022/04/23 05:01:42;;;;;;;19.45;10.50;;;9.90;99.90;;;;;;4998197;28;20068;-75
2022/04/23 05:04:08;;;;;;;22.95;9.20;;;9.90;99.90;;;;;;4996912;28;20065;-74
2022/04/23 05:06:34;;;;;;;18.05;10.18;;;9.90;99.90;;;;;;5016198;28;20083;-74
2022/04/23 05:09:00;;;;;;;17.50;9.38;;;9.90;99.90;;;;;;5015965;28;20026;-74
2022/04/23 05:11:25;;;;;;;18.92;10.50;;;9.90;99.90;;;;;;4999052;28;20398;-74
2022/04/23 05:13:51;;;;;;;17.40;9.80;;;9.90;99.90;;;;;;4998016;28;20026;-74
2022/04/23 05:16:17;;;;;;;19.58;10.73;;;9.90;99.90;;;;;;5015832;28;20491;-74
2022/04/23 05:18:43;;;;;;;18.05;9.75;;;9.90;99.90;;;;;;4998038;28;20491;-74
2022/04/23 05:21:08;;;;;;;19.83;10.23;;;9.90;99.90;;;;;;5015522;28;20037;-74
2022/04/23 05:23:34;;;;;;;19.80;10.50;;;10.00;99.90;;;;;;5015849;28;20025;-74
2022/04/23 05:26:01;;;;;;;20.00;9.93;;;10.00;99.90;;;;;;4997668;28;20100;-74
2022/04/23 05:28:27;;;;;;;21.33;10.98;;;10.10;99.90;;;;;;5015506;28;20021;-74
2022/04/23 05:30:52;;;;;;;20.60;10.48;;;10.10;99.90;;;;;;5015857;28;20026;-74
2022/04/23 05:33:18;;;;;;;19.30;10.52;;;10.10;99.90;;;;;;5015466;28;20430;-74
2022/04/23 05:35:44;;;;;;;18.20;10.07;;;10.20;99.90;;;;;;4997861;28;20022;-74
2022/04/23 05:38:09;;;;;;;18.77;9.23;;;10.20;99.90;;;;;;5015149;28;20037;-74
2022/04/23 05:40:35;;;;;;;16.02;8.65;;;10.20;99.90;;;;;;5015411;28;20028;-74
2022/04/23 05:43:00;;;;;;;17.95;9.30;;;10.30;99.90;;;;;;5014874;28;20022;-75
2022/04/23 05:45:27;;;;;;;19.00;10.13;;;10.30;99.90;;;;;;4997463;28;20029;-75
2022/04/23 05:47:53;;;;;;;15.43;8.85;;;10.30;99.90;;;;;;5015050;28;20079;-75
2022/04/23 05:50:19;;;;;;;17.15;8.65;;;10.40;99.90;;;;;;4997855;28;20026;-75
2022/04/23 05:52:45;;;;;;;16.90;8.73;;;10.50;99.90;;;;;;5014907;28;20036;-75
2022/04/23 05:55:11;;;;;;;17.25;8.48;;;10.50;99.90;;;;;;4997321;28;20014;-75
2022/04/23 05:57:37;;;;;;;19.73;9.55;;;10.70;99.90;;;;;;4997044;28;20041;-74
2022/04/23 06:00:06;;;;;;;16.60;8.98;;;10.70;99.90;;;;;;5015211;28;20029;-74
2022/04/23 06:02:31;;;;;;;16.25;8.52;;;10.80;99.90;;;;;;5015101;28;20033;-74
2022/04/23 06:04:57;;;;;;;18.70;9.02;;;10.80;99.90;;;;;;5014675;28;20471;-74
2022/04/23 06:07:23;;;;;;;16.25;8.38;;;10.90;99.90;;;;;;4997157;28;20033;-74
2022/04/23 06:09:49;;;;;;;17.35;8.93;;;11.00;99.90;;;;;;4997017;28;20594;-74
2022/04/23 06:12:15;;;;;;;15.63;7.57;;;11.00;99.90;;;;;;5015060;28;20026;-74
2022/04/23 06:14:40;;;;;;;16.23;8.18;;;11.10;99.90;;;;;;5014226;28;20025;-74
2022/04/23 06:17:08;;;;;;;14.75;7.30;;;11.10;99.90;;;;;;5014238;28;20501;-74
2022/04/23 06:19:34;;;;;;;14.30;7.65;;;11.20;99.90;;;;;;4996636;28;20114;-74
2022/04/23 06:22:00;;;;;;;15.13;8.13;;;11.30;99.90;;;;;;5014238;28;20110;-75
2022/04/23 06:24:26;;;;;;;25.27;7.45;;;11.40;99.90;;;;;;5014484;28;20391;-75
2022/04/23 06:26:52;;;;;;;13.27;7.45;;;11.50;99.90;;;;;;4996446;28;20164;-75
2022/04/23 06:29:20;;;;;;;12.93;7.72;;;11.50;99.90;;;;;;5013953;28;20065;-75
2022/04/23 06:31:46;;;;;;;11.32;7.40;;;11.60;99.90;;;;;;5013970;28;20046;-75
2022/04/23 06:34:12;;;;;;;12.48;6.68;;;11.70;99.90;;;;;;5013942;28;20474;-75
2022/04/23 06:36:38;;;;;;;12.95;7.32;;;11.70;99.90;;;;;;4996346;28;20022;-75
2022/04/23 06:39:04;;;;;;;14.05;7.55;;;11.90;99.90;;;;;;5014229;28;20140;-75
2022/04/23 06:41:29;;;;;;;11.60;6.53;;;11.90;99.90;;;;;;4996197;28;20058;-75
2022/04/23 06:43:55;;;;;;;14.95;7.63;;;12.00;99.90;;;;;;5014174;28;20029;-75
2022/04/23 06:46:21;;;;;;;11.73;6.88;;;12.10;99.90;;;;;;5013750;28;20030;-75
2022/04/23 06:48:46;;;;;;;12.75;6.90;;;12.10;99.90;;;;;;5013727;28;20068;-75
2022/04/23 06:51:12;;;;;;;12.85;7.13;;;12.20;99.90;;;;;;5013695;28;20053;-75
2022/04/23 06:53:37;;;;;;;10.60;7.03;;;12.30;99.90;;;;;;5013590;28;20084;-75
2022/04/23 06:56:04;;;;;;;11.05;6.75;;;12.80;99.90;;;;;;5013619;28;20360;-75
2022/04/23 06:58:30;;;;;;;13.32;7.65;;;12.40;99.90;;;;;;4996036;28;20559;-75
2022/04/23 07:00:55;;;;;;;10.65;6.88;;;12.50;99.90;;;;;;4996055;28;20487;-78
2022/04/23 07:03:21;;;;;;;14.10;6.97;;;12.60;99.90;;;;;;5013961;28;20029;-77
2022/04/23 07:05:47;;;;;;;11.55;6.85;;;12.80;99.90;;;;;;4995807;28;20025;-76
2022/04/23 07:08:13;;;;;;;14.52;7.22;;;11.20;99.90;;;;;;5013485;28;20088;-76
2022/04/23 07:10:38;;;;;;;12.95;6.88;;;12.90;99.90;;;;;;4995749;28;20065;-76
2022/04/23 07:13:05;;;;;;;11.93;7.20;;;12.90;99.90;;;;;;5013453;28;20029;-74
2022/04/23 07:15:31;;;;;;;14.10;7.82;;;13.00;99.90;;;;;;5013470;28;20033;-74
2022/04/23 07:17:57;;;;;;;14.80;7.78;;;13.10;99.90;;;;;;5013992;28;20026;-76
2022/04/23 07:20:23;;;;;;;11.52;6.90;;;13.20;99.90;;;;;;5013457;28;20026;-76
2022/04/23 07:25:33;;;;;;;13.38;6.72;;;13.30;99.90;;;;;;5040123;23;20386;-77
2022/04/23 07:27:59;;;;;;;11.82;6.68;;;13.40;99.90;;;;;;5035088;28;20047;-77
2022/04/23 07:30:26;;;;;;;14.80;7.40;;;15.10;99.90;;;;;;5037111;28;20029;-76
2022/04/23 07:32:56;;;;;;;12.13;6.53;;;13.60;99.90;;;;;;5019023;28;20029;-77
2022/04/23 07:38:16;;;;;;;13.68;7.00;;;13.60;99.90;;;;;;5037819;28;20063;-75
2022/04/23 07:40:43;;;;;;;11.88;6.43;;;13.70;99.90;;;;;;5037072;28;20052;-75
2022/04/23 07:43:12;;;;;;;11.70;6.72;;;13.80;99.90;;;;;;5018960;28;20554;-75
2022/04/23 07:45:43;;;;;;;11.57;7.05;;;13.90;99.90;;;;;;5036899;28;20017;-76
2022/04/23 07:48:11;;;;;;;9.95;6.40;;;14.00;99.90;;;;;;5036831;28;20099;-75
2022/04/23 07:50:39;;;;;;;10.30;6.22;;;14.10;99.90;;;;;;5019016;28;20025;-76
2022/04/23 07:53:07;;;;;;;10.57;5.80;;;14.20;99.90;;;;;;5036710;28;20124;-75
2022/04/23 07:55:35;;;;;;;11.15;6.72;;;14.30;99.90;;;;;;5018877;28;20044;-75
2022/04/23 07:58:05;;;;;;;12.25;6.65;;;14.40;99.90;;;;;;5019209;28;20032;-76
2022/04/23 08:00:37;;;;;;;12.40;6.60;;;14.50;99.90;;;;;;5036481;28;20028;-75
2022/04/23 08:03:03;;;;;;;10.82;6.40;;;14.60;99.90;;;;;;5036711;28;20109;-76
2022/04/23 08:05:32;;;;;;;11.43;6.65;;;14.60;99.90;;;;;;5018595;28;20025;-76
2022/04/23 08:07:57;;;;;;;;;;;14.70;99.90;;;;;;5036732;28;20021;-75
2022/04/23 08:10:23;;;;;;;11.68;6.30;;;15.00;99.90;;;;;;5036342;28;19912;-75
2022/04/23 08:12:49;;;;;;;10.57;6.25;;;14.90;99.90;;;;;;5036222;28;20017;-75
2022/04/23 08:15:15;;;;;;;11.13;6.20;;;14.90;99.90;;;;;;5036286;28;20017;-75
2022/04/23 08:17:41;;;;;;;11.88;6.97;;;15.10;99.90;;;;;;5018456;28;20060;-76
2022/04/23 08:20:08;;;;;;;10.52;6.13;;;15.00;99.90;;;;;;5018373;28;20030;-75
2022/04/23 08:22:33;;;;;;;11.50;6.75;;;15.10;99.90;;;;;;5018470;28;20048;-75
2022/04/23 08:24:59;;;;;;;11.25;6.60;;;15.00;99.90;;;;;;5035947;28;20033;-75
2022/04/23 08:27:25;;;;;;;11.75;6.65;;;15.10;99.90;;;;;;5018207;28;20037;-75
2022/04/23 08:32:35;;;;;;;12.60;6.68;;;15.20;99.90;;;;;;5036613;28;20490;-76
2022/04/23 08:35:01;;;;;;;11.65;6.60;;;15.30;99.90;;;;;;5035839;28;20025;-76
2022/04/23 08:37:27;;;;;;;11.25;6.75;;;15.40;99.90;;;;;;5018013;28;20029;-76
2022/04/23 08:39:53;;;;;;;10.15;6.45;;;15.50;99.90;;;;;;5035956;28;20029;-76
2022/04/23 08:42:19;;;;;;;11.98;6.45;;;15.50;99.90;;;;;;5035694;28;20068;-76
2022/04/23 08:44:45;;;;;;;9.80;5.93;;;15.60;99.90;;;;;;5017888;28;20025;-76
2022/04/23 08:47:11;;;;;;;10.30;5.80;;;15.70;99.90;;;;;;5035622;28;20394;-76
2022/04/23 08:49:40;;;;;;;10.75;5.85;;;15.80;99.90;;;;;;5036146;28;20025;-75
2022/04/23 08:52:15;;;;;;;10.30;5.88;;;15.80;99.80;;;;;;5035707;28;20529;-76
2022/04/23 08:54:41;;;;;;;13.13;6.75;;;15.90;99.90;;;;;;5035427;28;20105;-76
2022/04/23 08:57:07;;;;;;;12.07;6.47;;;16.00;99.30;;;;;;5017633;28;20029;-75
2022/04/23 08:59:33;;;;;;;11.73;7.03;;;15.90;98.10;;;;;;5035653;28;20075;-75
2022/04/23 09:01:59;;;;;;;12.90;6.60;;;16.00;97.30;;;;;;5035132;28;20108;-75
2022/04/23 09:04:25;;;;;;;10.60;6.38;;;15.90;97.30;;;;;;5035286;28;20064;-75
2022/04/23 09:06:50;;;;;;;12.77;6.85;;;16.00;97.90;;;;;;5035182;28;20036;-76
2022/04/23 09:09:19;;;;;;;11.80;6.20;;;16.10;97.30;;;;;;5035165;28;20021;-76
2022/04/23 09:11:53;;;;;;;12.27;6.43;;;16.20;96.80;;;;;;5035188;28;20387;-75
2022/04/23 09:14:33;;;;;;;13.15;6.68;;;16.30;95.80;;;;;;5035522;28;20068;-76
2022/04/23 09:25:42;;;;;;;11.23;6.32;;;16.30;93.90;;;;;;5035111;28;20037;-73
2022/04/23 09:28:14;;;;;;;10.07;6.13;;;16.20;95.10;;;;;;5017022;28;20029;-74
2022/04/23 09:30:39;;;;;;;9.55;5.90;;;16.10;95.40;;;;;;5017010;28;20097;-74
2022/04/23 09:33:05;;;;;;;9.70;5.90;;;16.10;95.40;;;;;;5016836;28;20443;-74
2022/04/23 09:35:31;;;;;;;10.95;6.15;;;16.10;96.10;;;;;;5017066;28;20116;-73
2022/04/23 09:38:14;;;;;;;9.75;5.88;;;16.20;95.60;;;;;;5034752;28;20061;-73
2022/04/23 09:40:40;;;;;;;11.32;6.30;;;16.50;95.20;;;;;;5034664;28;20021;-73
2022/04/23 09:43:07;;;;;;;9.98;6.30;;;16.80;94.60;;;;;;5016962;28;20076;-73
2022/04/23 09:45:34;;;;;;;11.38;6.60;;;17.20;94.60;;;;;;5016887;28;20060;-73
2022/04/23 09:48:06;;;;;;;10.88;5.72;;;17.60;91.90;;;;;;5016622;28;20021;-73
2022/04/23 09:50:39;;;;;;;9.60;5.38;;;18.00;90.70;;;;;;5015953;28;20030;-73
2022/04/23 09:53:19;;;;;;;13.93;6.53;;;18.30;90.30;;;;;;5034774;28;20033;-73
2022/04/23 09:55:46;;;;;;;13.57;6.38;;;18.70;82.50;;;;;;5034354;28;20454;-73
2022/04/23 09:58:14;;;;;;;11.20;6.43;;;18.80;80.30;;;;;;5034167;28;20014;-73
2022/04/23 10:00:41;;;;;;;10.80;5.40;;;18.80;78.10;;;;;;5016450;28;20025;-76
2022/04/23 10:03:08;;;;;;;10.93;5.85;;;18.90;79.70;;;;;;5030618;23;20041;-74
2022/04/23 10:05:40;;;;;;;12.15;5.38;;;19.10;80.10;;;;;;5016305;28;20033;-76
2022/04/23 10:08:14;;;;;;;10.10;5.38;;;19.20;74.70;;;;;;5034135;28;20095;-75
2022/04/23 10:10:45;;;;;;;10.77;5.97;;;19.10;74.90;;;;;;5016187;28;20402;-76
2022/04/23 10:13:12;;;;;;;10.60;6.05;;;18.90;74.40;;;;;;5014153;28;20022;-76
2022/04/23 10:15:40;;;;;;;11.63;6.07;;;18.90;75.30;;;;;;5014697;28;20021;-75
2022/04/23 10:18:10;;;;;;;14.30;6.35;;;18.90;75.20;;;;;;5014159;28;20033;-75
2022/04/23 10:20:40;;;;;;;14.40;6.38;;;18.80;74.50;;;;;;4996453;28;20030;-76
2022/04/23 10:23:44;;;;;;;15.57;7.03;;;18.70;74.10;;;;;;5014382;28;20101;-76
2022/04/23 10:26:25;;;;;;;9.82;5.88;;;18.30;74.70;;;;;;4994901;28;20041;-76
2022/04/23 10:28:51;;;;;;;10.27;6.18;;;18.10;78.50;;;;;;5010791;28;20072;-75
2022/04/23 10:31:18;;;;;;;15.18;6.65;;;17.80;77.70;;;;;;5012526;28;20018;-76
2022/04/23 10:33:51;;;;;;;12.70;6.30;;;17.50;79.10;;;;;;5013666;28;20021;-75
2022/04/23 10:36:18;;;;;;;13.88;6.25;;;17.30;81.00;;;;;;5013913;28;20080;-75
2022/04/23 10:38:51;;;;;;;15.38;6.85;;;17.00;82.00;;;;;;5013841;28;20061;-75
2022/04/23 10:41:18;;;;;;;13.18;6.40;;;17.10;85.30;;;;;;5013748;28;20022;-76
2022/04/23 10:44:00;;;;;;;9.30;5.75;;;17.60;85.70;;;;;;5014339;28;20525;-75
2022/04/23 10:46:38;;;;;;;11.70;6.50;;;18.10;83.00;;;;;;5013910;28;20026;-75
2022/04/23 10:49:25;;;;;;;10.75;6.28;;;18.50;81.10;;;;;;4996098;28;20368;-75
2022/04/23 10:51:55;;;;;;;10.77;6.10;;;19.10;76.70;;;;;;5014186;28;20022;-75
2022/04/23 10:54:41;;;;;;;12.45;6.85;;;19.20;74.70;;;;;;5013641;28;20080;-76
2022/04/23 10:57:08;;;;;;;11.65;6.47;;;19.00;73.60;;;;;;4995955;28;20049;-76
2022/04/23 10:59:40;;;;;;;13.25;6.10;;;18.80;73.40;;;;;;4995902;28;20033;-75
2022/04/23 11:02:21;;;;;;;11.05;6.43;;;18.60;74.60;;;;;;5013256;28;20041;-75
2022/04/23 11:13:38;;;;;;;10.48;6.72;;;18.20;77.20;;;;;;5013790;28;20037;-75
2022/04/23 11:16:16;;;;;;;11.80;5.97;;;18.60;74.80;;;;;;5013985;28;20105;-75
2022/04/23 11:18:43;;;;;;;12.00;6.63;;;19.00;73.80;;;;;;5013659;28;20022;-75
2022/04/23 11:21:20;;;;;;;13.27;5.95;;;19.50;71.80;;;;;;5013308;28;20050;-76
2022/04/23 11:23:47;;;;;;;11.45;6.20;;;19.60;69.90;;;;;;5013461;28;20036;-76
2022/04/23 11:26:38;;;;;;;11.63;6.10;;;19.70;68.90;;;;;;5013209;28;20109;-75
2022/04/23 11:29:04;;;;;;;12.40;6.53;;;19.60;68.40;;;;;;5013539;28;20022;-75
2022/04/23 11:31:30;;;;;;;10.70;5.55;;;19.60;67.90;;;;;;4995744;28;20029;-76
2022/04/23 11:34:00;;;;;;;16.92;6.72;;;19.70;67.80;;;;;;5013590;28;20010;-76
2022/04/23 11:36:36;;;;;;;11.60;6.13;;;19.70;67.00;;;;;;5013169;28;20061;-75
2022/04/23 11:39:09;;;;;;;10.75;6.18;;;19.70;66.70;;;;;;5013869;28;20022;-76
2022/04/23 11:41:48;;;;;;;9.80;5.80;;;19.80;65.50;;;;;;4995479;28;20124;-75
2022/04/23 11:47:08;;;;;;;15.00;7.53;;;20.10;64.90;;;;;;5013245;28;20040;-76
2022/04/23 11:49:34;;;;;;;13.75;7.25;;;20.10;64.10;;;;;;5013104;28;20430;-76
2022/04/23 11:52:11;;;;;;;12.55;6.97;;;19.80;65.30;;;;;;5013573;28;20022;-76
2022/04/23 11:54:42;;;;;;;13.77;7.13;;;19.80;66.70;;;;;;5013621;28;20026;-76
2022/04/23 11:57:13;;;;;;;12.43;6.72;;;20.10;66.20;;;;;;5013267;28;20049;-76
2022/04/23 11:59:44;;;;;;;12.77;7.10;;;20.30;65.30;;;;;;5013037;28;20068;-75
2022/04/23 12:02:31;;;;;;;12.00;6.63;;;20.70;63.90;;;;;;5012986;28;20073;-75
2022/04/23 12:05:02;;;;;;;11.95;7.03;;;21.10;62.10;;;;;;5012979;28;20109;-76
2022/04/23 12:07:31;;;;;;;12.75;7.15;;;21.40;60.90;;;;;;4995416;28;20535;-76
2022/04/23 12:09:59;;;;;;;13.13;6.28;;;21.60;59.60;;;;;;5012874;28;20018;-76
2022/04/23 12:12:30;;;;;;;10.32;6.25;;;21.80;58.10;;;;;;4995363;28;20034;-75
2022/04/23 12:14:57;;;;;;;12.82;7.53;;;21.90;57.40;;;;;;5016313;28;20018;-76
2022/04/23 12:17:31;;;;;;;12.57;6.38;;;21.80;57.30;;;;;;5016448;28;20421;-75
2022/04/23 12:20:09;;;;;;;11.75;7.07;;;21.60;57.30;;;;;;4999064;28;20025;-75
2022/04/23 12:22:34;;;;;;;13.33;6.47;;;21.70;57.70;;;;;;5016302;28;20438;-76
2022/04/23 12:25:07;;;;;;;12.88;6.93;;;21.80;57.60;;;;;;5016306;28;20121;-76
2022/04/23 12:27:53;;;;;;;13.55;7.03;;;21.90;57.50;;;;;;4998706;28;20030;-76
2022/04/23 12:42:06;;;;;;;11.88;6.97;;;22.60;54.80;;;;;;5015987;28;20041;-76
2022/04/23 12:44:40;;;;;;;14.40;6.85;;;22.30;54.10;;;;;;4998363;28;20060;-75
2022/04/23 12:47:08;;;;;;;14.45;7.13;;;21.90;54.80;;;;;;5016134;28;20598;-76
2022/04/23 12:49:48;;;;;;;10.05;5.75;;;21.60;55.40;;;;;;4998238;28;20022;-75
2022/04/23 12:52:20;;;;;;;14.35;7.47;;;21.40;56.40;;;;;;5015741;28;20076;-75
2022/04/23 12:55:30;;;;;;;12.25;7.15;;;21.50;57.30;;;;;;5016070;28;20033;-75
2022/04/23 12:58:02;;;;;;;10.73;6.72;;;21.60;56.40;;;;;;5015758;28;20096;-75
2022/04/23 13:00:28;;;;;;;11.52;6.70;;;21.40;55.60;;;;;;5015696;28;20065;-75
2022/04/23 13:02:59;;;;;;;14.18;6.78;;;21.20;56.30;;;;;;5015449;28;20033;-75
2022/04/23 13:05:26;;;;;;;13.70;6.47;;;21.30;56.00;;;;;;5015955;28;20467;-75
2022/04/23 13:10:37;;;;;;;10.90;6.88;;;21.10;56.30;;;;;;5016243;28;20041;-75
2022/04/23 13:13:04;;;;;;;12.27;6.53;;;21.30;56.30;;;;;;4997841;28;20494;-75
2022/04/23 13:15:31;;;;;;;9.93;6.35;;;21.50;56.70;;;;;;4997832;28;20014;-75
2022/04/23 13:17:56;;;;;;;10.05;6.10;;;22.00;55.70;;;;;;4997840;28;20104;-75
2022/04/23 13:20:22;;;;;;;13.32;6.68;;;22.10;54.20;;;;;;5015292;28;20022;-75
2022/04/23 13:22:48;;;;;;;10.55;6.60;;;22.10;53.40;;;;;;5015172;28;20109;-75
2022/04/23 13:25:16;;;;;;;11.80;6.45;;;22.60;53.00;;;;;;5014121;28;20037;-75